Time;durP1;ratioP1;P1;durP2;ratioP2;P2;SDS_P1;SDS_P2;PMS_P1;PMS_P2;Temp;Humidity;BMP_temperature;BMP_pressure;BME280_temperature;BME280_humidity;BME280_pressure;Samples;Min_cycle;Max_cycle;Signal;HPM_P1;HPM_P2
2022/10/24 00:00:39;;;;;;;;;;;14.00;99.90;;;;;;4966790;28;20352;-77
2022/10/24 00:03:05;;;;;;;;;;;14.00;99.90;;;;;;4975379;28;19926;-76
2022/10/24 00:05:30;;;;;;;;;;;14.00;99.90;;;;;;4966830;28;19914;-76
2022/10/24 00:07:56;;;;;;;;;;;14.00;99.90;;;;;;4965920;28;19928;-76
2022/10/24 00:10:21;;;;;;;;;;;13.90;99.90;;;;;;4976439;28;19918;-77
2022/10/24 00:12:47;;;;;;;;;;;13.80;99.90;;;;;;4960472;28;19917;-76
2022/10/24 00:15:12;;;;;;;;;;;13.70;99.90;;;;;;4959610;28;19914;-76
2022/10/24 00:17:38;;;;;;;;;;;13.70;99.90;;;;;;4966747;28;19964;-76
2022/10/24 00:20:04;;;;;;;;;;;13.70;99.90;;;;;;4979017;28;20314;-76
2022/10/24 00:22:30;;;;;;;;;;;13.60;99.90;;;;;;4960203;28;19918;-76
2022/10/24 00:24:55;;;;;;;;;;;13.60;99.90;;;;;;4969211;28;20620;-76
2022/10/24 00:27:21;;;;;;;;;;;13.60;99.90;;;;;;4972712;28;20016;-77
2022/10/24 00:29:46;;;;;;;;;;;13.70;99.90;;;;;;4968382;28;19952;-76
2022/10/24 00:32:11;;;;;;;;;;;13.70;99.90;;;;;;4979753;28;19918;-76
2022/10/24 00:34:37;;;;;;;;;;;13.60;99.90;;;;;;4966139;28;19953;-76
2022/10/24 00:37:03;;;;;;;;;;;13.60;99.90;;;;;;4973982;28;19909;-75
2022/10/24 00:39:28;;;;;;;;;;;13.60;99.90;;;;;;4961567;28;19910;-75
2022/10/24 00:41:57;;;;;;;;;;;13.70;99.90;;;;;;4964691;28;19974;-77
2022/10/24 00:44:23;;;;;;;;;;;13.70;99.90;;;;;;4953797;28;20660;-76
2022/10/24 00:46:48;;;;;;;;;;;13.80;99.90;;;;;;4971641;28;19992;-76
2022/10/24 00:49:14;;;;;;;;;;;13.70;99.90;;;;;;4957990;28;19998;-76
2022/10/24 00:51:40;;;;;;;;;;;13.70;99.90;;;;;;4974573;28;19914;-76
2022/10/24 00:54:08;;;;;;;;;;;13.60;99.90;;;;;;4964081;28;19910;-76
2022/10/24 00:56:36;;;;;;;;;;;13.60;99.90;;;;;;4958779;28;20001;-76
2022/10/24 00:59:03;;;;;;;;;;;13.60;99.90;;;;;;4965861;28;20001;-75
2022/10/24 01:01:29;;;;;;;;;;;13.50;99.90;;;;;;4961237;28;19913;-76
2022/10/24 01:03:55;;;;;;;;;;;13.50;99.90;;;;;;4961203;28;19910;-75
2022/10/24 01:06:23;;;;;;;;;;;13.50;99.90;;;;;;4966976;28;20345;-75
2022/10/24 01:08:54;;;;;;;;;;;13.40;99.90;;;;;;4951961;28;19906;-75
2022/10/24 01:11:41;;;;;;;;;;;13.30;99.90;;;;;;4962034;28;19913;-76
2022/10/24 01:14:12;;;;;;;;;;;13.30;99.90;;;;;;4961538;28;19913;-76
2022/10/24 01:16:54;;;;;;;;;;;13.30;99.90;;;;;;4961986;28;20001;-76
2022/10/24 01:19:36;;;;;;;;;;;13.20;99.90;;;;;;4963920;28;19937;-76
2022/10/24 01:22:04;;;;;;;;;;;13.20;99.90;;;;;;4966552;28;19945;-76
2022/10/24 01:24:35;;;;;;;;;;;13.10;99.90;;;;;;4959233;28;19913;-75
2022/10/24 01:27:01;;;;;;;;;;;13.10;99.90;;;;;;4967194;28;20348;-75
2022/10/24 01:29:38;;;;;;;;;;;13.30;99.90;;;;;;4957367;28;19910;-76
2022/10/24 01:32:09;;;;;;;;;;;13.20;99.90;;;;;;4968152;28;20130;-76
2022/10/24 01:34:39;;;;;;;;;;;13.30;99.90;;;;;;4957610;28;20371;-75
2022/10/24 01:37:08;;;;;;;;;;;13.40;99.90;;;;;;4961081;28;19965;-75
2022/10/24 01:39:36;;;;;;;;;;;13.50;99.90;;;;;;4964199;28;19914;-75
2022/10/24 01:42:02;;;;;;;;;;;13.60;99.90;;;;;;4959570;28;19918;-76
2022/10/24 01:44:33;;;;;;;;;;;13.60;99.90;;;;;;4960817;28;19916;-76
2022/10/24 01:47:02;;;;;;;;;;;13.60;99.90;;;;;;4963810;28;19949;-76
2022/10/24 01:49:30;;;;;;;;;;;13.60;99.90;;;;;;4959719;28;19960;-76
2022/10/24 01:51:58;;;;;;;;;;;13.50;99.90;;;;;;4959631;28;19999;-75
2022/10/24 01:54:23;;;;;;;;;;;13.50;99.90;;;;;;4963121;28;20361;-76
2022/10/24 01:56:49;;;;;;;;;;;13.40;99.90;;;;;;4957629;28;19910;-74
2022/10/24 01:59:27;;;;;;;;;;;13.40;99.90;;;;;;4958696;28;21491;-75
2022/10/24 02:01:54;;;;;;;;;;;13.30;99.90;;;;;;4958453;28;19913;-75
2022/10/24 02:04:20;;;;;;;;;;;13.20;99.90;;;;;;4961480;28;20320;-76
2022/10/24 02:06:46;;;;;;;;;;;13.20;99.90;;;;;;4959361;28;19949;-75
2022/10/24 02:09:14;;;;;;;;;;;13.20;99.90;;;;;;4959219;28;19910;-76
2022/10/24 02:11:40;;;;;;;;;;;13.20;99.90;;;;;;4968471;28;19920;-75
2022/10/24 02:14:09;;;;;;;;;;;13.00;99.90;;;;;;4948538;28;20556;-76
2022/10/24 02:16:35;;;;;;;;;;;13.00;99.90;;;;;;4960330;28;19914;-76
2022/10/24 02:19:00;;;;;;;;;;;12.90;99.90;;;;;;4958406;28;20927;-75
2022/10/24 02:21:26;;;;;;;;;;;12.80;99.90;;;;;;4951317;28;20342;-76
2022/10/24 02:23:53;;;;;;;;;;;12.80;99.90;;;;;;4956677;28;20333;-75
2022/10/24 02:26:45;;;;;;;;;;;12.70;99.90;;;;;;4969800;28;20544;-76
2022/10/24 02:29:13;;;;;;;;;;;12.60;99.90;;;;;;4946024;28;20713;-76
2022/10/24 02:31:40;;;;;;;;;;;12.60;99.90;;;;;;4961469;28;19922;-76
2022/10/24 02:34:06;;;;;;;;;;;12.40;99.90;;;;;;4964867;28;19914;-76
2022/10/24 02:36:34;;;;;;;;;;;12.50;99.90;;;;;;4959709;28;19921;-76
2022/10/24 02:39:00;;;;;;;;;;;12.60;99.90;;;;;;4961745;28;19928;-76
2022/10/24 02:41:28;;;;;;;;;;;12.50;99.90;;;;;;4960072;28;19925;-75
2022/10/24 02:43:54;;;;;;;;;;;12.40;99.90;;;;;;4967161;28;20758;-76
2022/10/24 02:46:20;;;;;;;;;;;12.60;99.90;;;;;;4959372;28;19907;-75
2022/10/24 02:48:47;;;;;;;;;;;12.50;99.90;;;;;;4961821;28;19910;-76
2022/10/24 02:51:14;;;;;;;;;;;12.60;99.90;;;;;;4973708;28;20377;-75
2022/10/24 02:53:39;;;;;;;;;;;12.60;99.90;;;;;;4957706;28;19910;-76
2022/10/24 02:56:05;;;;;;;;;;;12.70;99.90;;;;;;4964119;28;20424;-76
2022/10/24 02:58:30;;;;;;;;;;;12.60;99.90;;;;;;4962452;28;19981;-76
2022/10/24 03:00:55;;;;;;;;;;;12.40;99.90;;;;;;4958698;28;19910;-76
2022/10/24 03:03:21;;;;;;;;;;;12.20;99.90;;;;;;4964519;28;19981;-75
2022/10/24 03:05:46;;;;;;;;;;;12.30;99.90;;;;;;4964722;28;19910;-76
2022/10/24 03:08:12;;;;;;;;;;;12.30;99.90;;;;;;4956942;28;20004;-76
2022/10/24 03:10:37;;;;;;;;;;;12.30;99.90;;;;;;4956599;28;20527;-75
2022/10/24 03:13:03;;;;;;;;;;;12.20;99.90;;;;;;4956672;28;19929;-76
2022/10/24 03:15:28;;;;;;;;;;;12.00;99.90;;;;;;4963530;28;19918;-76
2022/10/24 03:17:54;;;;;;;;;;;12.20;99.90;;;;;;4958845;28;19969;-75
2022/10/24 03:20:19;;;;;;;;;;;12.10;99.90;;;;;;4966320;28;19917;-76
2022/10/24 03:22:45;;;;;;;;;;;12.00;99.90;;;;;;4969657;28;19913;-76
2022/10/24 03:25:10;;;;;;;;;;;11.90;99.90;;;;;;4963590;28;19992;-76
2022/10/24 03:27:36;;;;;;;;;;;11.90;99.90;;;;;;4961834;28;19910;-77
2022/10/24 03:30:01;;;;;;;;;;;11.80;99.90;;;;;;4972219;28;19964;-78
2022/10/24 03:32:27;;;;;;;;;;;11.70;99.90;;;;;;4963399;28;20797;-83
2022/10/24 03:34:52;;;;;;;;;;;11.60;99.90;;;;;;4956145;28;19914;-79
2022/10/24 03:37:18;;;;;;;;;;;12.10;99.90;;;;;;4965526;28;19965;-82
2022/10/24 03:39:43;;;;;;;;;;;12.30;99.90;;;;;;4974778;28;19910;-78
2022/10/24 03:42:09;;;;;;;;;;;12.40;99.90;;;;;;4965894;28;19914;-80
2022/10/24 03:44:34;;;;;;;;;;;12.40;99.90;;;;;;4967867;28;19914;-81
2022/10/24 03:46:59;;;;;;;;;;;12.30;99.90;;;;;;4967375;28;19970;-84
2022/10/24 03:49:25;;;;;;;;;;;12.30;99.90;;;;;;4959356;28;19937;-88
2022/10/24 03:51:50;;;;;;;;;;;12.30;99.90;;;;;;4957034;28;19993;-77
2022/10/24 03:54:16;;;;;;;;;;;12.20;99.90;;;;;;4964581;28;19913;-77
2022/10/24 03:56:42;;;;;;;;;;;12.20;99.90;;;;;;4972596;28;19952;-77
2022/10/24 03:59:08;;;;;;;;;;;12.10;99.90;;;;;;4952434;28;19946;-83
2022/10/24 04:01:33;;;;;;;;;;;12.10;99.90;;;;;;4956362;28;20392;-79
2022/10/24 04:03:59;;;;;;;;;;;12.10;99.90;;;;;;4968030;28;19914;-79
2022/10/24 04:06:24;;;;;;;;;;;12.10;99.90;;;;;;4973979;28;19913;-80
2022/10/24 04:08:49;;;;;;;;;;;12.10;99.90;;;;;;4973449;28;19910;-80
2022/10/24 04:11:15;;;;;;;;;;;12.00;99.90;;;;;;4966915;28;19972;-79
2022/10/24 04:13:40;;;;;;;;;;;12.10;99.90;;;;;;4967641;28;20016;-80
2022/10/24 04:16:06;;;;;;;;;;;12.00;99.90;;;;;;4968076;28;19910;-79
2022/10/24 04:18:32;;;;;;;;;;;12.10;99.90;;;;;;4974379;28;19914;-80
2022/10/24 04:20:57;;;;;;;;;;;12.00;99.90;;;;;;4965694;28;19909;-79
2022/10/24 04:23:22;;;;;;;;;;;12.00;99.90;;;;;;4975202;28;19956;-79
2022/10/24 04:25:48;;;;;;;;;;;12.00;99.90;;;;;;4973757;28;19944;-79
2022/10/24 04:28:13;;;;;;;;;;;12.00;99.90;;;;;;4966019;28;19914;-80
2022/10/24 04:30:39;;;;;;;;;;;11.90;99.90;;;;;;4955716;28;19914;-95
2022/10/24 04:33:05;;;;;;;;;;;11.80;99.90;;;;;;4948532;28;19917;-81
2022/10/24 04:35:30;;;;;;;;;;;11.80;99.90;;;;;;4963323;28;19918;-81
2022/10/24 04:37:55;;;;;;;;;;;11.70;99.90;;;;;;4967414;28;19917;-81
2022/10/24 04:40:21;;;;;;;;;;;11.80;99.90;;;;;;4961180;28;19914;-81
2022/10/24 04:42:46;;;;;;;;;;;11.70;99.90;;;;;;4965378;28;19916;-81
2022/10/24 04:45:12;;;;;;;;;;;11.70;99.90;;;;;;4966703;28;19914;-81
2022/10/24 04:47:37;;;;;;;;;;;11.90;99.90;;;;;;4964429;28;19910;-80
2022/10/24 04:50:03;;;;;;;;;;;12.00;99.90;;;;;;4967730;28;19957;-80
2022/10/24 04:52:28;;;;;;;;;;;11.90;99.90;;;;;;4966596;28;19966;-80
2022/10/24 04:54:53;;;;;;;;;;;11.80;99.90;;;;;;4968218;28;19957;-81
2022/10/24 04:57:19;;;;;;;;;;;11.90;99.90;;;;;;4963687;28;20480;-81
2022/10/24 04:59:44;;;;;;;;;;;11.90;99.90;;;;;;4966457;28;19918;-81
2022/10/24 05:02:10;;;;;;;;;;;11.90;99.90;;;;;;4963774;28;19918;-81
2022/10/24 05:04:35;;;;;;;;;;;11.80;99.90;;;;;;4961909;28;20431;-81
2022/10/24 05:07:00;;;;;;;;;;;11.90;99.90;;;;;;4966660;28;19957;-81
2022/10/24 05:09:26;;;;;;;;;;;11.90;99.90;;;;;;4963607;28;19918;-81
2022/10/24 05:11:55;;;;;;;;;;;12.00;99.90;;;;;;4963765;28;20012;-82
2022/10/24 05:14:21;;;;;;;;;;;12.10;99.90;;;;;;4965250;28;19914;-81
2022/10/24 05:16:48;;;;;;;;;;;12.20;99.90;;;;;;4965606;28;19936;-81
2022/10/24 05:19:14;;;;;;;;;;;12.30;99.90;;;;;;4963403;28;19910;-81
2022/10/24 05:21:39;;;;;;;;;;;12.30;99.90;;;;;;4963201;28;19910;-82
2022/10/24 05:24:05;;;;;;;;;;;12.30;99.90;;;;;;4965464;28;20023;-81
2022/10/24 05:26:30;;;;;;;;;;;12.30;99.90;;;;;;4964734;28;20672;-81
2022/10/24 05:28:56;;;;;;;;;;;12.40;99.90;;;;;;4963263;28;19914;-82
2022/10/24 05:31:21;;;;;;;;;;;12.40;99.90;;;;;;4965461;28;19969;-81
2022/10/24 05:33:46;;;;;;;;;;;12.50;99.90;;;;;;4962552;28;19976;-80
2022/10/24 05:36:12;;;;;;;;;;;12.50;99.90;;;;;;4962213;28;19949;-80
2022/10/24 05:38:37;;;;;;;;;;;12.60;99.90;;;;;;4964440;28;20008;-80
2022/10/24 05:41:03;;;;;;;;;;;12.60;99.90;;;;;;4966358;28;19913;-81
2022/10/24 05:43:28;;;;;;;;;;;12.60;99.90;;;;;;4963462;28;19913;-80
2022/10/24 05:45:54;;;;;;;;;;;12.50;99.90;;;;;;4966600;28;19914;-80
2022/10/24 05:48:19;;;;;;;;;;;12.50;99.90;;;;;;4960813;28;19914;-81
2022/10/24 05:50:44;;;;;;;;;;;12.50;99.90;;;;;;4960934;28;19928;-81
2022/10/24 05:53:11;;;;;;;;;;;12.50;99.90;;;;;;4965927;28;19916;-80
2022/10/24 05:55:37;;;;;;;;;;;12.50;99.90;;;;;;4966214;28;19918;-80
2022/10/24 05:58:03;;;;;;;;;;;12.60;99.90;;;;;;4964991;28;19918;-81
2022/10/24 06:00:28;;;;;;;;;;;12.70;99.90;;;;;;4963188;28;19910;-80
2022/10/24 06:02:54;;;;;;;;;;;12.60;99.90;;;;;;4962556;28;19914;-83
2022/10/24 06:05:20;;;;;;;;;;;12.60;99.90;;;;;;4965479;28;19921;-81
2022/10/24 06:07:45;;;;;;;;;;;12.60;99.90;;;;;;4960149;28;20284;-81
2022/10/24 06:10:11;;;;;;;;;;;12.50;99.90;;;;;;4962993;28;19924;-80
2022/10/24 06:12:37;;;;;;;;;;;12.50;99.90;;;;;;4968430;28;19920;-81
2022/10/24 06:15:03;;;;;;;;;;;12.40;99.90;;;;;;4967346;28;19918;-81
2022/10/24 06:17:28;;;;;;;;;;;12.40;99.90;;;;;;4966027;28;20377;-80
2022/10/24 06:19:54;;;;;;;;;;;12.60;99.90;;;;;;4967357;28;19926;-81
2022/10/24 06:22:22;;;;;;;;;;;12.70;99.90;;;;;;4969443;28;19910;-80
2022/10/24 06:24:48;;;;;;;;;;;12.60;99.90;;;;;;4966621;28;20482;-80
2022/10/24 06:27:14;;;;;;;;;;;12.70;99.90;;;;;;4966025;28;19914;-80
2022/10/24 06:29:40;;;;;;;;;;;12.70;99.90;;;;;;4968813;28;19910;-80
2022/10/24 06:32:05;;;;;;;;;;;12.60;99.90;;;;;;4966005;28;19945;-80
2022/10/24 06:34:31;;;;;;;;;;;12.60;99.90;;;;;;4966646;28;20317;-81
2022/10/24 06:36:57;;;;;;;;;;;12.60;99.90;;;;;;4967299;28;19925;-80
2022/10/24 06:39:22;;;;;;;;;;;12.60;99.90;;;;;;4969221;28;19924;-80
2022/10/24 06:41:48;;;;;;;;;;;12.70;99.90;;;;;;4966390;28;20353;-80
2022/10/24 06:44:13;;;;;;;;;;;12.80;99.90;;;;;;4965683;28;20397;-80
2022/10/24 06:46:39;;;;;;;;;;;12.90;99.90;;;;;;4968591;28;19996;-80
2022/10/24 06:49:05;;;;;;;;;;;12.80;99.90;;;;;;4963951;28;19910;-80
2022/10/24 06:51:30;;;;;;;;;;;13.00;99.90;;;;;;4962813;28;19996;-80
2022/10/24 06:53:56;;;;;;;;;;;13.00;99.90;;;;;;4966765;28;20045;-80
2022/10/24 06:56:22;;;;;;;;;;;13.10;99.90;;;;;;4964084;28;19924;-82
2022/10/24 06:58:47;;;;;;;;;;;13.30;99.90;;;;;;4966624;28;21200;-80
2022/10/24 07:01:14;;;;;;;;;;;13.40;99.90;;;;;;4968760;28;20373;-80
2022/10/24 07:03:40;;;;;;;;;;;13.50;99.90;;;;;;4961821;28;19916;-79
2022/10/24 07:06:07;;;;;;;;;;;13.70;99.90;;;;;;4961144;28;19929;-80
2022/10/24 07:08:33;;;;;;;;;;;13.80;99.90;;;;;;4959296;28;19925;-80
2022/10/24 07:10:58;;;;;;;;;;;13.90;99.90;;;;;;4962386;28;19914;-80
2022/10/24 07:13:23;;;;;;;;;;;14.00;99.90;;;;;;4963471;28;19949;-76
2022/10/24 07:15:53;;;;;;;;;;;14.10;99.90;;;;;;4965274;28;20004;-79
2022/10/24 07:18:18;;;;;;;;;;;14.20;99.90;;;;;;4965946;28;20432;-80
2022/10/24 07:20:44;;;;;;;;;;;14.20;99.90;;;;;;4966326;28;19965;-82
2022/10/24 07:23:09;;;;;;;;;;;14.40;99.90;;;;;;4964570;28;20016;-80
2022/10/24 07:25:36;;;;;;;;;;;14.40;99.90;;;;;;4955396;28;19910;-79
2022/10/24 07:28:01;;;;;;;;;;;14.30;99.90;;;;;;4955375;28;20095;-82
2022/10/24 07:30:27;;;;;;;;;;;14.40;99.90;;;;;;4964146;28;20060;-82
2022/10/24 07:32:52;;;;;;;;;;;14.40;99.90;;;;;;4957560;28;20405;-80
2022/10/24 07:35:18;;;;;;;;;;;14.50;99.90;;;;;;4967209;28;19910;-80
2022/10/24 07:37:43;;;;;;;;;;;14.50;99.90;;;;;;4963996;28;20601;-83
2022/10/24 07:40:09;;;;;;;;;;;14.60;99.90;;;;;;4966187;28;20284;-80
2022/10/24 07:42:34;;;;;;;;;;;14.70;99.90;;;;;;4964909;28;20373;-79
2022/10/24 07:45:01;;;;;;;;;;;14.90;99.90;;;;;;4967273;28;21139;-80
2022/10/24 07:47:27;;;;;;;;;;;15.00;99.90;;;;;;4966836;28;19917;-79
2022/10/24 07:49:52;;;;;;;;;;;15.10;99.90;;;;;;4968964;28;19906;-80
2022/10/24 07:52:17;;;;;;;;;;;15.30;99.90;;;;;;4967484;28;19913;-79
2022/10/24 07:54:43;;;;;;;;;;;15.30;99.90;;;;;;4968060;28;19997;-76
2022/10/24 07:57:08;;;;;;;;;;;15.40;99.90;;;;;;4964199;28;19910;-76
2022/10/24 07:59:34;;;;;;;;;;;15.50;99.90;;;;;;4967335;28;19976;-77
2022/10/24 08:01:59;;;;;;;;;;;15.60;99.90;;;;;;4968462;28;19917;-75
2022/10/24 08:04:25;;;;;;;;;;;15.60;99.90;;;;;;4970058;28;20384;-77
2022/10/24 08:06:50;;;;;;;;;;;15.80;99.90;;;;;;4962875;28;20495;-76
2022/10/24 08:09:17;;;;;;;;;;;15.90;99.90;;;;;;4962812;28;19918;-76
2022/10/24 08:11:42;;;;;;;;;;;16.00;99.90;;;;;;4961296;28;20004;-76
2022/10/24 08:14:07;;;;;;;;;;;16.10;99.90;;;;;;4952901;28;20000;-84
2022/10/24 08:16:33;;;;;;;;;;;16.10;99.90;;;;;;4970091;28;19917;-79
2022/10/24 08:18:58;;;;;;;;;;;16.20;99.90;;;;;;4967188;28;19910;-77
2022/10/24 08:21:24;;;;;;;;;;;16.20;99.90;;;;;;4957588;28;19917;-77
2022/10/24 08:23:52;;;;;;;;;;;16.30;99.90;;;;;;4971319;28;19921;-78
2022/10/24 08:26:19;;;;;;;;;;;16.40;99.90;;;;;;4971517;28;19932;-76
2022/10/24 08:28:47;;;;;;;;;;;16.40;99.90;;;;;;4975936;28;19916;-79
2022/10/24 08:31:15;;;;;;;;;;;16.60;99.90;;;;;;4972766;28;19917;-78
2022/10/24 08:33:41;;;;;;;;;;;16.70;99.90;;;;;;4964725;28;19996;-77
2022/10/24 08:36:16;;;;;;;;;;;16.70;99.90;;;;;;4980713;28;20017;-77
2022/10/24 08:38:41;;;;;;;;;;;16.80;99.90;;;;;;4952258;28;19920;-76
2022/10/24 08:41:09;;;;;;;;;;;16.80;99.90;;;;;;4960403;28;19993;-77
2022/10/24 08:43:35;;;;;;;;;;;16.90;99.90;;;;;;4974378;28;19914;-80
2022/10/24 08:46:06;;;;;;;;;;;17.00;99.90;;;;;;4983022;28;19980;-75
2022/10/24 08:48:36;;;;;;;;;;;17.20;99.90;;;;;;4961986;28;19949;-77
2022/10/24 08:51:09;;;;;;;;;;;17.30;99.90;;;;;;4973133;28;19914;-78
2022/10/24 08:53:35;;;;;;;;;;;17.40;99.90;;;;;;4962446;28;20001;-77
2022/10/24 08:56:00;;;;;;;;;;;17.40;99.90;;;;;;4961538;28;20410;-77
2022/10/24 08:58:42;;;;;;;;;;;17.40;99.90;;;;;;4958686;28;20667;-77
2022/10/24 09:01:13;;;;;;;;;;;17.50;99.90;;;;;;4963361;28;19917;-83
2022/10/24 09:03:38;;;;;;;;;;;17.60;99.90;;;;;;4953009;28;19911;-81
2022/10/24 09:06:11;;;;;;;;;;;17.60;99.90;;;;;;4966955;28;19910;-86
2022/10/24 09:08:45;;;;;;;;;;;17.60;99.90;;;;;;4962590;28;20402;-85
2022/10/24 09:11:35;;;;;;;;;;;17.70;99.90;;;;;;4964564;28;19913;-73
2022/10/24 09:14:05;;;;;;;;;;;17.80;99.90;;;;;;4964559;28;19918;-76
2022/10/24 09:16:31;;;;;;;;;;;17.90;99.90;;;;;;4966220;28;19921;-77
2022/10/24 09:18:57;;;;;;;;;;;17.90;99.90;;;;;;4965956;28;19910;-77
2022/10/24 09:21:22;;;;;;;;;;;17.80;99.90;;;;;;4962583;28;19915;-78
2022/10/24 09:23:49;;;;;;;;;;;17.80;99.90;;;;;;4963428;28;20529;-76
2022/10/24 09:26:17;;;;;;;;;;;17.90;99.90;;;;;;4966026;28;19914;-76
2022/10/24 09:28:42;;;;;;;;;;;17.90;99.90;;;;;;4957705;28;19918;-76
2022/10/24 09:31:16;;;;;;;;;;;17.90;99.90;;;;;;4957872;28;20006;-77
2022/10/24 09:33:43;;;;;;;;;;;17.90;99.90;;;;;;4967418;28;19963;-76
2022/10/24 09:36:10;;;;;;;;;;;17.90;99.90;;;;;;4958004;28;20460;-74
2022/10/24 09:38:36;;;;;;;;;;;17.80;99.90;;;;;;4960400;28;19922;-75
2022/10/24 09:41:06;;;;;;;;;;;17.80;99.90;;;;;;4953390;28;19925;-76
2022/10/24 09:43:37;;;;;;;;;;;17.90;99.90;;;;;;4948231;28;19965;-76
2022/10/24 09:46:13;;;;;;;;;;;18.10;99.90;;;;;;4960379;28;19916;-77
2022/10/24 09:48:56;;;;;;;;;;;18.20;99.90;;;;;;4957434;28;19910;-76
2022/10/24 09:51:36;;;;;;;;;;;18.40;99.90;;;;;;4952896;28;20461;-76
2022/10/24 09:54:04;;;;;;;;;;;18.30;99.90;;;;;;4960795;28;19972;-75
2022/10/24 09:56:37;;;;;;;;;;;18.20;99.90;;;;;;4965207;28;19997;-71
2022/10/24 09:59:21;;;;;;;;;;;18.20;99.90;;;;;;4955385;28;19914;-74
2022/10/24 10:01:48;;;;;;;;;;;18.20;99.90;;;;;;4955991;28;19910;-74
2022/10/24 10:04:18;;;;;;;;;;;18.30;99.90;;;;;;4965040;28;19998;-74
2022/10/24 10:06:47;;;;;;;;;;;18.40;99.90;;;;;;4964646;28;20361;-74
2022/10/24 10:09:14;;;;;;;;;;;18.30;99.90;;;;;;4966598;28;19930;-74
2022/10/24 10:11:40;;;;;;;;;;;18.50;99.90;;;;;;4967770;28;19914;-74
2022/10/24 10:14:18;;;;;;;;;;;18.60;99.90;;;;;;4974456;28;19913;-74
2022/10/24 10:16:44;;;;;;;;;;;18.70;99.90;;;;;;4980909;28;19911;-74
2022/10/24 10:19:17;;;;;;;;;;;18.80;99.90;;;;;;4966405;28;19910;-74
2022/10/24 10:21:54;;;;;;;;;;;18.80;99.90;;;;;;4980714;28;19910;-73
2022/10/24 10:24:32;;;;;;;;;;;18.80;99.90;;;;;;4948990;28;19925;-73
2022/10/24 10:26:57;;;;;;;;;;;18.80;99.90;;;;;;4952078;28;20256;-72
2022/10/24 10:29:23;;;;;;;;;;;18.80;99.90;;;;;;4958890;28;20813;-73
2022/10/24 10:32:10;;;;;;;;;;;18.90;99.90;;;;;;4979112;28;20544;-72
2022/10/24 10:34:39;;;;;;;;;;;18.90;99.90;;;;;;4982926;28;19922;-74
2022/10/24 10:37:17;;;;;;;;;;;18.90;99.90;;;;;;4970629;28;19917;-72
2022/10/24 10:39:45;;;;;;;;;;;18.90;99.90;;;;;;4981429;28;19910;-73
2022/10/24 10:42:13;;;;;;;;;;;18.90;99.90;;;;;;4988460;28;19945;-73
2022/10/24 10:44:47;;;;;;;;;;;19.00;99.90;;;;;;4986073;28;19906;-73
2022/10/24 10:47:23;;;;;;;;;;;18.80;99.90;;;;;;4977518;28;19913;-73
2022/10/24 10:49:53;;;;;;;;;;;18.80;99.90;;;;;;4972211;28;19909;-74
2022/10/24 10:52:29;;;;;;;;;;;18.70;99.90;;;;;;4984073;28;19914;-72
2022/10/24 10:54:59;;;;;;;;;;;18.60;99.90;;;;;;4986713;28;19916;-73
2022/10/24 10:57:44;;;;;;;;;;;18.50;99.90;;;;;;4988136;28;19913;-73
2022/10/24 11:00:33;;;;;;;;;;;18.50;99.90;;;;;;4982750;28;19906;-74
2022/10/24 11:03:15;;;;;;;;;;;18.60;99.90;;;;;;4971703;28;19917;-73
2022/10/24 11:05:52;;;;;;;;;;;18.50;99.90;;;;;;4979467;28;20355;-73
2022/10/24 11:08:38;;;;;;;;;;;18.60;99.90;;;;;;4969873;28;19945;-73
2022/10/24 11:11:21;;;;;;;;;;;18.60;99.90;;;;;;4989728;28;19906;-72
2022/10/24 11:13:59;;;;;;;;;;;18.70;99.90;;;;;;4991621;28;19963;-73
2022/10/24 11:16:25;;;;;;;;;;;18.80;99.90;;;;;;4991480;28;19905;-73
2022/10/24 11:18:52;;;;;;;;;;;18.80;99.90;;;;;;4963267;28;19920;-73
2022/10/24 11:21:20;;;;;;;;;;;18.80;99.90;;;;;;4981784;28;19909;-73
2022/10/24 11:23:52;;;;;;;;;;;18.90;99.90;;;;;;4991074;28;19909;-74
2022/10/24 11:26:36;;;;;;;;;;;18.90;99.90;;;;;;4970628;28;19917;-72
2022/10/24 11:29:17;;;;;;;;;;;18.90;99.90;;;;;;4990746;28;19913;-73
2022/10/24 11:31:45;;;;;;;;;;;19.00;99.90;;;;;;4978263;28;19922;-73
2022/10/24 11:34:16;;;;;;;;;;;19.20;99.90;;;;;;4990805;28;19905;-73
2022/10/24 11:37:02;;;;;;;;;;;19.30;99.90;;;;;;4990605;28;19913;-73
2022/10/24 11:39:46;;;;;;;;;;;19.30;99.90;;;;;;4975052;28;20293;-73
2022/10/24 11:42:19;;;;;;;;;;;19.20;99.90;;;;;;4977565;28;19939;-73
2022/10/24 11:45:05;;;;;;;;;;;19.10;99.90;;;;;;4973258;28;19914;-73
2022/10/24 11:47:44;;;;;;;;;;;19.10;99.90;;;;;;4990656;28;20416;-74
2022/10/24 11:50:28;;;;;;;;;;;19.00;99.90;;;;;;4991586;28;20264;-73
2022/10/24 11:53:01;;;;;;;;;;;19.00;99.90;;;;;;4982109;28;20285;-73
2022/10/24 11:55:37;;;;;;;;;;;19.00;99.90;;;;;;4977807;28;19956;-74
2022/10/24 11:58:07;;;;;;;;;;;19.00;99.90;;;;;;4990485;28;19992;-74
2022/10/24 12:00:50;;;;;;;;;;;19.00;99.90;;;;;;4978650;28;19910;-73
2022/10/24 12:03:19;;;;;;;;;;;19.00;99.90;;;;;;4968077;28;19965;-73
2022/10/24 12:05:47;;;;;;;;;;;19.20;99.90;;;;;;4975006;28;19913;-73
2022/10/24 12:08:21;;;;;;;;;;;19.30;99.90;;;;;;4977030;28;20373;-73
2022/10/24 12:11:13;;;;;;;;;;;19.30;99.90;;;;;;4971940;28;19933;-73
2022/10/24 12:13:46;;;;;;;;;;;19.50;99.90;;;;;;4990260;28;20060;-73
2022/10/24 12:16:15;;;;;;;;;;;19.60;99.90;;;;;;4990411;28;19910;-74
2022/10/24 12:18:42;;;;;;;;;;;20.20;99.90;;;;;;4965672;28;20008;-74
2022/10/24 12:21:09;;;;;;;;;;;21.20;99.90;;;;;;4990141;28;20000;-74
2022/10/24 12:23:35;;;;;;;;;;;21.60;99.90;;;;;;4989645;28;20527;-74
2022/10/24 12:26:21;;;;;;;;;;;21.10;99.90;;;;;;4990363;28;19906;-74
2022/10/24 12:28:53;;;;;;;;;;;20.70;99.90;;;;;;4950160;28;19918;-74
2022/10/24 12:31:20;;;;;;;;;;;20.40;99.90;;;;;;4963518;28;19926;-74
2022/10/24 12:33:46;;;;;;;;;;;20.20;99.90;;;;;;4965528;28;19914;-75
2022/10/24 12:36:12;;;;;;;;;;;20.20;99.90;;;;;;4981473;28;19906;-73
2022/10/24 12:38:38;;;;;;;;;;;20.00;99.90;;;;;;4990043;28;19956;-74
2022/10/24 12:41:13;;;;;;;;;;;19.90;99.90;;;;;;4969721;28;19950;-75
2022/10/24 12:43:42;;;;;;;;;;;19.90;99.90;;;;;;4972993;28;19913;-74
2022/10/24 12:46:13;;;;;;;;;;;19.80;99.90;;;;;;4989619;28;19960;-74
2022/10/24 12:48:42;;;;;;;;;;;19.70;99.90;;;;;;4989520;28;19912;-75
2022/10/24 12:51:26;;;;;;;;;;;19.60;99.90;;;;;;4978782;28;19914;-74
2022/10/24 12:53:59;;;;;;;;;;;19.40;99.90;;;;;;4989662;28;19956;-74
2022/10/24 12:56:24;;;;;;;;;;;19.80;99.90;;;;;;4978423;28;19953;-73
2022/10/24 12:58:57;;;;;;;;;;;20.80;99.90;;;;;;4962234;28;20000;-73
2022/10/24 13:01:23;;;;;;;;;;;22.30;98.60;;;;;;4965439;28;19918;-74
2022/10/24 13:03:49;;;;;;;;;;;24.90;90.20;;;;;;4960793;28;19921;-73
2022/10/24 13:06:33;;;;;;;;;;;25.40;82.10;;;;;;4971010;28;19914;-72
2022/10/24 13:09:07;;;;;;;;;;;25.10;82.30;;;;;;4964295;28;19910;-73
2022/10/24 13:11:42;;;;;;;;;;;23.50;87.80;;;;;;4974886;28;20400;-74
2022/10/24 13:14:28;;;;;;;;;;;23.10;90.10;;;;;;4967451;28;20621;-74
2022/10/24 13:16:59;;;;;;;;;;;22.60;90.90;;;;;;4959263;28;20141;-74
2022/10/24 13:19:25;;;;;;;;;;;22.60;91.10;;;;;;4963153;28;19910;-75
2022/10/24 13:21:50;;;;;;;;;;;22.80;91.40;;;;;;4961575;28;19910;-73
2022/10/24 13:24:17;;;;;;;;;;;22.50;91.30;;;;;;4972618;28;20448;-74
2022/10/24 13:26:42;;;;;;;;;;;21.80;92.90;;;;;;4966952;28;19980;-74
2022/10/24 13:29:14;;;;;;;;;;;21.70;94.40;;;;;;4971419;28;19918;-74
2022/10/24 13:31:41;;;;;;;;;;;21.20;95.40;;;;;;4949517;28;20333;-74
2022/10/24 13:34:12;;;;;;;;;;;21.10;96.50;;;;;;4971354;28;19909;-74
2022/10/24 13:36:38;;;;;;;;;;;21.10;96.50;;;;;;4984315;28;19945;-74
2022/10/24 13:39:09;;;;;;;;;;;21.00;96.50;;;;;;4964899;28;19957;-75
2022/10/24 13:41:38;;;;;;;;;;;21.10;96.90;;;;;;4960330;28;19914;-74
2022/10/24 13:44:13;;;;;;;;;;;21.00;96.50;;;;;;4963960;28;19964;-74
2022/10/24 13:46:43;;;;;;;;;;;20.80;96.90;;;;;;4973516;28;20385;-75
2022/10/24 13:49:19;;;;;;;;;;;20.80;97.20;;;;;;4979824;28;19917;-75
2022/10/24 13:51:47;;;;;;;;;;;20.70;97.70;;;;;;4980156;28;19918;-75
2022/10/24 13:54:13;;;;;;;;;;;20.70;97.90;;;;;;4954224;28;20364;-74
2022/10/24 13:56:39;;;;;;;;;;;20.60;98.30;;;;;;4966039;28;19992;-74
2022/10/24 13:59:24;;;;;;;;;;;20.50;98.30;;;;;;4968378;28;20005;-75
2022/10/24 14:01:50;;;;;;;;;;;20.50;98.80;;;;;;4960232;28;19925;-74
2022/10/24 14:04:15;;;;;;;;;;;21.00;97.00;;;;;;4962704;28;19997;-75
2022/10/24 14:06:44;;;;;;;;;;;21.20;96.00;;;;;;4962031;28;19910;-75
2022/10/24 14:09:10;;;;;;;;;;;21.50;95.30;;;;;;4960510;28;19914;-76
2022/10/24 14:11:40;;;;;;;;;;;20.80;96.00;;;;;;4960788;28;19965;-74
2022/10/24 14:14:07;;;;;;;;;;;20.40;97.50;;;;;;4962796;28;19910;-73
2022/10/24 14:16:33;;;;;;;;;;;20.30;98.40;;;;;;4966174;28;19923;-73
2022/10/24 14:19:11;;;;;;;;;;;20.20;98.60;;;;;;4973844;28;20001;-75
2022/10/24 14:21:41;;;;;;;;;;;20.10;99.10;;;;;;4971011;28;19910;-74
2022/10/24 14:24:09;;;;;;;;;;;19.90;99.90;;;;;;4973537;28;20323;-73